createdAt,value
2022-10-17T00:00:44.935Z,0.00
2022-10-17T00:01:44.977Z,0.00
2022-10-17T00:02:44.946Z,0.00
2022-10-17T00:03:44.922Z,0.00
2022-10-17T00:04:44.896Z,0.00
2022-10-17T00:05:44.887Z,0.00
2022-10-17T00:06:44.899Z,0.00
2022-10-17T00:07:44.868Z,0.00
2022-10-17T00:08:44.889Z,0.00
2022-10-17T00:09:44.839Z,0.00
2022-10-17T00:10:44.841Z,0.00
2022-10-17T00:11:44.838Z,0.00
2022-10-17T00:12:44.809Z,0.00
2022-10-17T00:13:44.812Z,0.00
2022-10-17T00:14:44.812Z,0.00
2022-10-17T00:15:45.040Z,0.00
2022-10-17T00:16:45.169Z,0.00
2022-10-17T00:17:45.979Z,0.00
2022-10-17T00:18:44.742Z,0.00
2022-10-17T00:19:44.732Z,0.00
2022-10-17T00:20:44.863Z,0.00
2022-10-17T00:21:44.774Z,0.00
2022-10-17T00:22:44.694Z,0.00
2022-10-17T00:23:44.892Z,0.00
2022-10-17T00:24:44.921Z,0.00
2022-10-17T00:25:44.853Z,0.00
2022-10-17T00:26:44.799Z,0.00
2022-10-17T00:27:44.737Z,0.00
2022-10-17T00:28:44.667Z,0.00
2022-10-17T00:29:44.671Z,0.00
2022-10-17T00:30:44.797Z,0.00
2022-10-17T00:31:44.644Z,0.00
2022-10-17T00:32:44.659Z,0.00
2022-10-17T00:33:44.584Z,0.00
2022-10-17T00:34:44.560Z,0.00
2022-10-17T00:35:44.547Z,0.00
2022-10-17T00:36:44.566Z,0.00
2022-10-17T00:37:44.555Z,0.00
2022-10-17T00:38:44.509Z,0.00
2022-10-17T00:39:44.505Z,0.00
2022-10-17T00:40:44.563Z,0.00
2022-10-17T00:41:44.498Z,0.00
2022-10-17T00:42:44.486Z,0.00
2022-10-17T00:43:44.458Z,0.00
2022-10-17T00:44:44.451Z,0.00
2022-10-17T00:45:44.459Z,0.00
2022-10-17T00:46:44.450Z,0.00
2022-10-17T00:47:44.473Z,0.00
2022-10-17T00:48:44.402Z,0.00
2022-10-17T00:49:44.401Z,0.00
2022-10-17T00:50:44.436Z,0.00
2022-10-17T00:51:44.412Z,0.00
2022-10-17T00:52:44.380Z,0.00
2022-10-17T00:53:44.405Z,0.00
2022-10-17T00:54:44.340Z,0.00
2022-10-17T00:55:44.332Z,0.00
2022-10-17T00:56:44.324Z,0.00
2022-10-17T00:57:44.352Z,0.00
2022-10-17T00:58:44.995Z,0.00
2022-10-17T00:59:44.309Z,0.00
2022-10-17T01:00:44.271Z,0.00
2022-10-17T01:01:44.315Z,0.00
2022-10-17T01:02:44.306Z,0.00
2022-10-17T01:03:44.299Z,0.00
2022-10-17T01:04:44.255Z,0.00
2022-10-17T01:05:44.232Z,0.00
2022-10-17T01:06:44.219Z,0.00
2022-10-17T01:07:44.216Z,0.00
2022-10-17T01:08:44.196Z,0.00
2022-10-17T01:09:44.184Z,0.00
2022-10-17T01:10:44.172Z,0.00
2022-10-17T01:11:44.163Z,0.00
2022-10-17T01:12:44.139Z,0.00
2022-10-17T01:13:44.201Z,0.00
2022-10-17T01:14:44.118Z,0.00
2022-10-17T01:15:44.114Z,0.00
2022-10-17T01:16:44.103Z,0.00
2022-10-17T01:17:44.094Z,0.00
2022-10-17T01:18:44.089Z,0.00
2022-10-17T01:19:44.090Z,0.00
2022-10-17T01:20:44.055Z,0.00
2022-10-17T01:21:44.060Z,0.00
2022-10-17T01:22:44.042Z,0.00
2022-10-17T01:23:44.031Z,0.00
2022-10-17T01:24:44.050Z,0.00
2022-10-17T01:25:44.046Z,0.00
2022-10-17T01:26:43.981Z,0.00
2022-10-17T01:27:43.982Z,0.00
2022-10-17T01:29:43.967Z,0.00
2022-10-17T01:30:43.945Z,0.00
2022-10-17T01:31:43.990Z,0.00
2022-10-17T01:32:43.933Z,0.00
2022-10-17T01:33:43.904Z,0.00
2022-10-17T01:34:43.930Z,0.00
2022-10-17T01:35:43.912Z,0.00
2022-10-17T01:36:43.891Z,0.00
2022-10-17T01:37:43.948Z,0.00
2022-10-17T01:38:43.865Z,0.00
2022-10-17T01:39:46.947Z,0.00
2022-10-17T01:40:43.844Z,0.00
2022-10-17T01:41:43.837Z,0.00
2022-10-17T01:42:43.815Z,0.00
2022-10-17T01:43:43.830Z,0.00
2022-10-17T01:44:43.816Z,0.00
2022-10-17T01:45:43.787Z,0.00
2022-10-17T01:46:43.875Z,0.00
2022-10-17T01:47:43.763Z,0.00
2022-10-17T01:48:43.768Z,0.00
2022-10-17T01:49:43.739Z,0.00
2022-10-17T01:50:43.755Z,0.00
2022-10-17T01:51:43.724Z,0.00
2022-10-17T01:52:43.720Z,0.00
2022-10-17T01:53:43.710Z,0.00
2022-10-17T01:54:43.684Z,0.00
2022-10-17T01:55:43.683Z,0.00
2022-10-17T01:56:43.698Z,0.00
2022-10-17T01:57:43.653Z,0.00
2022-10-17T01:58:43.651Z,0.00
2022-10-17T01:59:43.652Z,0.00
2022-10-17T02:00:43.627Z,0.00
2022-10-17T02:01:43.652Z,0.00
2022-10-17T02:02:43.621Z,0.00
2022-10-17T02:03:43.599Z,0.00
2022-10-17T02:04:43.572Z,0.00
2022-10-17T02:05:43.603Z,0.00
2022-10-17T02:06:43.568Z,0.00
2022-10-17T02:07:43.551Z,0.00
2022-10-17T02:08:43.540Z,0.00
2022-10-17T02:09:43.525Z,0.00
2022-10-17T02:10:43.571Z,0.00
2022-10-17T02:11:43.565Z,0.00
2022-10-17T02:12:43.476Z,0.00
2022-10-17T02:13:43.467Z,0.00
2022-10-17T02:14:43.465Z,0.00
2022-10-17T02:15:43.468Z,0.00
2022-10-17T02:16:43.446Z,0.00
2022-10-17T02:17:43.472Z,0.00
2022-10-17T02:18:43.437Z,0.00
2022-10-17T02:19:43.417Z,0.00
2022-10-17T02:20:43.457Z,0.00
2022-10-17T02:21:43.439Z,0.00
2022-10-17T02:22:43.379Z,0.00
2022-10-17T02:23:43.369Z,0.00
2022-10-17T02:24:43.351Z,0.00
2022-10-17T02:25:43.362Z,0.00
2022-10-17T02:26:43.328Z,0.00
2022-10-17T02:27:43.351Z,0.00
2022-10-17T02:28:43.366Z,0.00
2022-10-17T02:29:43.348Z,0.00
2022-10-17T02:30:43.303Z,0.00
2022-10-17T02:31:43.302Z,0.00
2022-10-17T02:32:46.600Z,0.00
2022-10-17T02:33:44.276Z,0.00
2022-10-17T02:34:43.240Z,0.00
2022-10-17T02:35:43.228Z,0.00
2022-10-17T02:36:43.241Z,0.00
2022-10-17T02:37:43.233Z,0.00
2022-10-17T02:38:43.204Z,0.00
2022-10-17T02:39:43.225Z,0.00
2022-10-17T02:40:43.183Z,0.00
2022-10-17T02:41:43.247Z,0.00
2022-10-17T02:42:43.195Z,0.00
2022-10-17T02:43:43.159Z,0.00
2022-10-17T02:44:43.145Z,0.00
2022-10-17T02:45:43.128Z,0.00
2022-10-17T02:46:43.122Z,0.00
2022-10-17T02:47:43.117Z,0.00
2022-10-17T02:48:43.116Z,0.00
2022-10-17T02:49:43.094Z,0.00
2022-10-17T02:50:43.121Z,0.00
2022-10-17T02:51:43.101Z,0.00
2022-10-17T02:52:43.039Z,0.00
2022-10-17T02:53:43.109Z,0.00
2022-10-17T02:54:43.042Z,0.00
2022-10-17T02:55:43.023Z,0.00
2022-10-17T02:56:43.060Z,0.00
2022-10-17T02:57:42.990Z,0.00
2022-10-17T02:58:42.981Z,0.00
2022-10-17T02:59:42.999Z,0.00
2022-10-17T03:00:42.992Z,0.00
2022-10-17T03:01:43.008Z,0.00
2022-10-17T03:02:42.963Z,0.00
2022-10-17T03:03:42.941Z,0.00
2022-10-17T03:04:42.922Z,0.00
2022-10-17T03:05:42.935Z,0.00
2022-10-17T03:06:42.902Z,0.00
2022-10-17T03:07:42.887Z,0.00
2022-10-17T03:08:42.872Z,0.00
2022-10-17T03:09:42.893Z,0.00
2022-10-17T03:10:42.853Z,0.00
2022-10-17T03:11:42.896Z,0.00
2022-10-17T03:12:42.838Z,0.00
2022-10-17T03:13:42.857Z,0.00
2022-10-17T03:14:42.817Z,0.00
2022-10-17T03:15:42.806Z,0.00
2022-10-17T03:16:42.808Z,0.00
2022-10-17T03:17:42.872Z,0.00
2022-10-17T03:18:45.380Z,0.00
2022-10-17T03:19:43.787Z,0.00
2022-10-17T03:20:42.747Z,0.00
2022-10-17T03:21:42.743Z,0.00
2022-10-17T03:22:42.718Z,0.00
2022-10-17T03:23:42.719Z,0.00
2022-10-17T03:24:42.704Z,0.00
2022-10-17T03:25:42.719Z,0.00
2022-10-17T03:26:43.761Z,0.00
2022-10-17T03:27:42.678Z,0.00
2022-10-17T03:28:42.680Z,0.00
2022-10-17T03:29:42.648Z,0.00
2022-10-17T03:30:42.701Z,0.00
2022-10-17T03:31:42.652Z,0.00
2022-10-17T03:32:42.600Z,0.00
2022-10-17T03:33:42.617Z,0.00
2022-10-17T03:34:42.609Z,0.00
2022-10-17T03:35:42.609Z,0.00
2022-10-17T03:36:42.582Z,0.00
2022-10-17T03:37:42.567Z,0.00
2022-10-17T03:38:42.576Z,0.00
2022-10-17T03:39:42.539Z,0.00
2022-10-17T03:40:43.463Z,0.00
2022-10-17T03:41:42.508Z,0.00
2022-10-17T03:42:42.532Z,0.00
2022-10-17T03:43:42.547Z,0.00
2022-10-17T03:44:42.503Z,0.00
2022-10-17T03:45:42.474Z,0.00
2022-10-17T03:46:42.456Z,0.00
2022-10-17T03:47:42.469Z,0.00
2022-10-17T03:48:42.433Z,0.00
2022-10-17T03:49:42.418Z,0.00
2022-10-17T03:50:42.481Z,0.00
2022-10-17T03:51:42.395Z,0.00
2022-10-17T03:52:42.396Z,0.00
2022-10-17T03:53:42.392Z,0.00
2022-10-17T03:54:42.373Z,0.00
2022-10-17T03:55:42.347Z,0.00
2022-10-17T03:56:42.401Z,0.00
2022-10-17T03:57:44.810Z,0.00
2022-10-17T03:58:42.318Z,0.00
2022-10-17T03:59:42.305Z,0.00
2022-10-17T04:00:42.309Z,0.00
2022-10-17T04:01:42.403Z,0.00
2022-10-17T04:02:42.285Z,0.00
2022-10-17T04:03:42.280Z,0.00
2022-10-17T04:04:42.281Z,0.00
2022-10-17T04:05:42.262Z,0.00
2022-10-17T04:06:42.233Z,0.00
2022-10-17T04:07:42.238Z,0.00
2022-10-17T04:08:42.243Z,0.00
2022-10-17T04:09:42.202Z,0.00
2022-10-17T04:10:42.183Z,0.00
2022-10-17T04:11:42.194Z,0.00
2022-10-17T04:12:42.159Z,0.00
2022-10-17T04:13:42.204Z,0.00
2022-10-17T04:14:42.187Z,0.00
2022-10-17T04:15:42.182Z,0.00
2022-10-17T04:16:42.131Z,0.00
2022-10-17T04:17:42.115Z,0.00
2022-10-17T04:18:42.096Z,0.00
2022-10-17T04:19:42.129Z,0.00
2022-10-17T04:20:42.117Z,0.00
2022-10-17T04:21:42.065Z,0.00
2022-10-17T04:22:42.064Z,0.00
2022-10-17T04:23:42.036Z,0.00
2022-10-17T04:24:42.082Z,0.00
2022-10-17T04:25:42.028Z,0.00
2022-10-17T04:26:42.010Z,0.00
2022-10-17T04:27:41.997Z,0.00
2022-10-17T04:28:42.007Z,0.00
2022-10-17T04:29:41.973Z,0.00
2022-10-17T04:30:45.101Z,0.00
2022-10-17T04:31:41.950Z,0.00
2022-10-17T04:32:41.953Z,0.00
2022-10-17T04:33:41.918Z,0.00
2022-10-17T04:34:41.918Z,0.00
2022-10-17T04:35:41.940Z,0.00
2022-10-17T04:36:41.945Z,0.00
2022-10-17T04:37:41.900Z,0.00
2022-10-17T04:38:41.872Z,0.00
2022-10-17T04:39:41.861Z,0.00
2022-10-17T04:40:41.854Z,0.00
2022-10-17T04:41:41.854Z,0.00
2022-10-17T04:42:41.863Z,0.00
2022-10-17T04:43:43.547Z,0.00
2022-10-17T04:44:42.803Z,0.00
2022-10-17T04:45:41.803Z,0.00
2022-10-17T04:46:41.785Z,0.00
2022-10-17T04:47:41.847Z,0.00
2022-10-17T04:48:41.784Z,0.00
2022-10-17T04:50:41.774Z,0.00
2022-10-17T04:51:41.735Z,0.00
2022-10-17T04:52:41.725Z,0.00
2022-10-17T04:53:41.746Z,0.00
2022-10-17T04:54:42.100Z,0.00
2022-10-17T04:55:41.803Z,0.00
2022-10-17T04:56:41.677Z,0.00
2022-10-17T04:57:41.661Z,0.00
2022-10-17T04:58:41.658Z,0.00
2022-10-17T04:59:41.681Z,0.00
2022-10-17T05:00:41.684Z,0.00
2022-10-17T05:01:41.624Z,0.00
2022-10-17T05:02:41.607Z,0.00
2022-10-17T05:03:41.602Z,0.00
2022-10-17T05:04:41.593Z,0.00
2022-10-17T05:05:41.613Z,0.00
2022-10-17T05:06:41.562Z,0.00
2022-10-17T05:07:41.625Z,0.00
2022-10-17T05:08:41.570Z,0.00
2022-10-17T05:09:41.541Z,0.00
2022-10-17T05:10:41.524Z,0.00
2022-10-17T05:11:41.503Z,0.00
2022-10-17T05:12:41.543Z,0.00
2022-10-17T05:13:41.527Z,0.00
2022-10-17T05:14:41.475Z,0.00
2022-10-17T05:15:41.475Z,0.00
2022-10-17T05:16:41.467Z,0.00
2022-10-17T05:17:41.446Z,0.00
2022-10-17T05:18:41.434Z,0.00
2022-10-17T05:19:41.432Z,0.00
2022-10-17T05:20:41.404Z,0.00
2022-10-17T05:21:41.396Z,0.00
2022-10-17T05:22:42.201Z,0.00
2022-10-17T05:23:41.388Z,0.00
2022-10-17T05:24:41.371Z,0.00
2022-10-17T05:25:41.384Z,0.00
2022-10-17T05:26:41.344Z,0.00
2022-10-17T05:27:41.336Z,0.00
2022-10-17T05:28:41.461Z,0.00
2022-10-17T05:29:41.313Z,0.00
2022-10-17T05:30:41.292Z,0.00
2022-10-17T05:31:41.320Z,0.00
2022-10-17T05:32:41.273Z,0.00
2022-10-17T05:33:41.273Z,0.00
2022-10-17T05:34:41.263Z,0.00
2022-10-17T05:35:41.243Z,0.00
2022-10-17T05:36:41.293Z,0.00
2022-10-17T05:37:41.208Z,0.00
2022-10-17T05:38:41.206Z,4.00
2022-10-17T05:39:41.236Z,4.00
2022-10-17T05:40:41.193Z,4.00
2022-10-17T05:41:41.195Z,4.00
2022-10-17T05:42:41.193Z,4.00
2022-10-17T05:43:41.154Z,8.00
2022-10-17T05:44:41.156Z,4.00
2022-10-17T05:45:41.132Z,8.00
2022-10-17T05:46:41.160Z,8.00
2022-10-17T05:47:41.126Z,8.00
2022-10-17T05:48:41.114Z,8.00
2022-10-17T05:49:51.245Z,12.00
2022-10-17T05:50:42.075Z,16.00
2022-10-17T05:51:41.078Z,16.00
2022-10-17T05:52:42.867Z,20.00
2022-10-17T05:53:41.034Z,24.00
2022-10-17T05:54:41.035Z,24.00
2022-10-17T05:55:41.015Z,28.00
2022-10-17T05:56:41.031Z,28.00
2022-10-17T05:57:41.028Z,28.00
2022-10-17T05:59:00.760Z,36.00
2022-10-17T05:59:42.006Z,36.00
2022-10-17T06:00:41.014Z,40.00
2022-10-17T06:01:40.997Z,40.00
2022-10-17T06:02:40.961Z,44.00
2022-10-17T06:03:40.931Z,52.00
2022-10-17T06:04:40.937Z,52.00
2022-10-17T06:05:40.931Z,60.00
2022-10-17T06:06:40.936Z,64.00
2022-10-17T06:07:40.979Z,72.00
2022-10-17T06:08:40.862Z,76.00
2022-10-17T06:09:40.877Z,84.00
2022-10-17T06:10:40.843Z,92.00
2022-10-17T06:11:40.871Z,100.00
2022-10-17T06:12:40.831Z,108.00
2022-10-17T06:13:40.809Z,112.00
2022-10-17T06:14:40.815Z,116.00
2022-10-17T06:15:40.815Z,124.00
2022-10-17T06:16:41.111Z,128.00
2022-10-17T06:17:40.767Z,136.00
2022-10-17T06:18:40.795Z,148.00
2022-10-17T06:19:40.748Z,156.00
2022-10-17T06:20:45.208Z,160.00
2022-10-17T06:21:41.764Z,164.00
2022-10-17T06:22:42.181Z,168.00
2022-10-17T06:23:40.974Z,172.00
2022-10-17T06:24:40.704Z,176.00
2022-10-17T06:25:41.324Z,188.00
2022-10-17T06:26:40.688Z,196.00
2022-10-17T06:27:40.764Z,204.00
2022-10-17T06:28:40.740Z,208.00
2022-10-17T06:29:40.660Z,216.00
2022-10-17T06:30:41.576Z,220.00
2022-10-17T06:31:40.610Z,224.00
2022-10-17T06:32:40.630Z,224.00
2022-10-17T06:33:40.598Z,224.00
2022-10-17T06:34:40.567Z,244.00
2022-10-17T06:35:40.585Z,252.00
2022-10-17T06:36:42.072Z,264.00
2022-10-17T06:37:40.965Z,276.00
2022-10-17T06:38:41.548Z,292.00
2022-10-17T06:39:40.530Z,304.00
2022-10-17T06:40:40.509Z,308.00
2022-10-17T06:41:40.591Z,316.00
2022-10-17T06:42:40.492Z,316.00
2022-10-17T06:43:40.479Z,324.00
2022-10-17T06:44:40.692Z,328.00
2022-10-17T06:45:40.459Z,336.00
2022-10-17T06:46:40.482Z,352.00
2022-10-17T06:47:40.472Z,372.00
2022-10-17T06:48:40.437Z,380.00
2022-10-17T06:49:41.898Z,380.00
2022-10-17T06:50:41.397Z,380.00
2022-10-17T06:51:40.394Z,380.00
2022-10-17T06:52:40.640Z,380.00
2022-10-17T06:53:41.372Z,384.00
2022-10-17T06:54:40.386Z,380.00
2022-10-17T06:55:40.359Z,388.00
2022-10-17T06:56:40.335Z,384.00
2022-10-17T06:57:40.476Z,388.00
2022-10-17T06:58:40.331Z,396.00
2022-10-17T06:59:40.422Z,404.00
2022-10-17T07:00:40.374Z,412.00
2022-10-17T07:01:43.102Z,424.00
2022-10-17T07:02:41.273Z,436.00
2022-10-17T07:03:40.259Z,452.00
2022-10-17T07:04:40.265Z,468.00
2022-10-17T07:05:40.271Z,484.00
2022-10-17T07:06:40.699Z,508.00
2022-10-17T07:07:43.121Z,536.00
2022-10-17T07:08:40.637Z,560.00
2022-10-17T07:09:40.200Z,580.00
2022-10-17T07:10:40.181Z,592.00
2022-10-17T07:11:40.545Z,608.00
2022-10-17T07:12:40.171Z,620.00
2022-10-17T07:13:41.089Z,616.00
2022-10-17T07:14:40.133Z,616.00
2022-10-17T07:15:40.192Z,620.00
2022-10-17T07:16:40.241Z,620.00
2022-10-17T07:17:40.221Z,628.00
2022-10-17T07:18:40.078Z,632.00
2022-10-17T07:19:40.071Z,644.00
2022-10-17T07:20:40.061Z,648.00
2022-10-17T07:21:40.084Z,664.00
2022-10-17T07:22:40.113Z,696.00
2022-10-17T07:23:40.046Z,712.00
2022-10-17T07:24:40.060Z,740.00
2022-10-17T07:25:40.346Z,780.00
2022-10-17T07:26:40.107Z,832.00
2022-10-17T07:27:40.006Z,896.00
2022-10-17T07:28:40.094Z,956.00
2022-10-17T07:29:39.967Z,1000.00
2022-10-17T07:30:40.005Z,1032.00
2022-10-17T07:31:39.978Z,1064.00
2022-10-17T07:32:39.916Z,1072.00
2022-10-17T07:33:40.066Z,1072.00
2022-10-17T07:34:39.950Z,1084.00
2022-10-17T07:35:39.929Z,1144.00
2022-10-17T07:36:40.176Z,1232.00
2022-10-17T07:37:39.875Z,1308.00
2022-10-17T07:38:39.863Z,1340.00
2022-10-17T07:39:39.940Z,1320.00
2022-10-17T07:40:39.836Z,1268.00
2022-10-17T07:41:39.843Z,1232.00
2022-10-17T07:43:39.793Z,1064.00
2022-10-17T07:44:39.790Z,960.00
2022-10-17T07:45:39.838Z,848.00
2022-10-17T07:46:40.856Z,824.00
2022-10-17T07:47:39.983Z,816.00
2022-10-17T07:48:39.962Z,844.00
2022-10-17T07:49:39.751Z,916.00
2022-10-17T07:50:40.394Z,996.00
2022-10-17T07:51:39.763Z,1052.00
2022-10-17T07:52:39.711Z,1088.00
2022-10-17T07:53:41.774Z,1084.00
2022-10-17T07:54:39.842Z,1084.00
2022-10-17T07:55:39.672Z,1092.00
2022-10-17T07:56:39.679Z,1060.00
2022-10-17T07:57:39.663Z,1040.00
2022-10-17T07:58:39.728Z,1012.00
2022-10-17T07:59:39.696Z,996.00
2022-10-17T08:00:39.722Z,972.00
2022-10-17T08:01:39.618Z,976.00
2022-10-17T08:02:39.596Z,976.00
2022-10-17T08:03:39.605Z,984.00
2022-10-17T08:04:39.565Z,992.00
2022-10-17T08:05:39.595Z,1008.00
2022-10-17T08:06:39.566Z,1032.00
2022-10-17T08:07:39.539Z,1068.00
2022-10-17T08:08:39.531Z,1068.00
2022-10-17T08:09:39.548Z,1080.00
2022-10-17T08:10:39.517Z,1060.00
2022-10-17T08:11:39.508Z,1028.00
2022-10-17T08:12:39.493Z,1008.00
2022-10-17T08:13:39.472Z,1024.00
2022-10-17T08:14:39.460Z,1052.00
2022-10-17T08:15:39.479Z,1068.00
2022-10-17T08:16:39.446Z,1084.00
2022-10-17T08:17:39.426Z,1120.00
2022-10-17T08:18:39.420Z,1100.00
2022-10-17T08:19:39.410Z,1076.00
2022-10-17T08:20:39.410Z,1068.00
2022-10-17T08:21:39.418Z,1016.00
2022-10-17T08:22:39.370Z,1008.00
2022-10-17T08:23:39.383Z,1024.00
2022-10-17T08:24:39.353Z,1016.00
2022-10-17T08:25:39.354Z,1120.00
2022-10-17T08:26:42.477Z,1300.00
2022-10-17T08:27:39.335Z,1332.00
2022-10-17T08:28:39.389Z,1320.00
2022-10-17T08:29:39.309Z,1348.00
2022-10-17T08:30:39.283Z,1360.00
2022-10-17T08:31:39.285Z,1328.00
2022-10-17T08:32:39.262Z,1276.00
2022-10-17T08:33:39.319Z,1228.00
2022-10-17T08:34:39.242Z,1152.00
2022-10-17T08:35:39.237Z,1120.00
2022-10-17T08:36:39.222Z,1076.00
2022-10-17T08:37:39.207Z,1060.00
2022-10-17T08:38:43.077Z,1024.00
2022-10-17T08:39:39.234Z,960.00
2022-10-17T08:40:39.197Z,1016.00
2022-10-17T08:41:39.162Z,1056.00
2022-10-17T08:42:39.149Z,1060.00
2022-10-17T08:43:39.144Z,1040.00
2022-10-17T08:44:39.152Z,1056.00
2022-10-17T08:45:39.152Z,1108.00
2022-10-17T08:46:39.116Z,1136.00
2022-10-17T08:47:39.110Z,1164.00
2022-10-17T08:48:41.663Z,1152.00
2022-10-17T08:49:40.091Z,1244.00
2022-10-17T08:50:39.081Z,1408.00
2022-10-17T08:51:39.063Z,1576.00
2022-10-17T08:52:39.039Z,1712.00
2022-10-17T08:53:39.033Z,1884.00
2022-10-17T08:54:39.042Z,1876.00
2022-10-17T08:55:41.486Z,1728.00
2022-10-17T08:56:55.335Z,1388.00
2022-10-17T08:57:39.997Z,1204.00
2022-10-17T08:58:38.975Z,1176.00
2022-10-17T08:59:38.993Z,1176.00
2022-10-17T09:00:38.948Z,1376.00
2022-10-17T09:01:38.961Z,1784.00
2022-10-17T09:02:39.098Z,1876.00
2022-10-17T09:03:38.917Z,2108.00
2022-10-17T09:04:38.926Z,2100.00
2022-10-17T09:05:38.945Z,2028.00
2022-10-17T09:06:38.907Z,2048.00
2022-10-17T09:07:38.867Z,2064.00
2022-10-17T09:08:38.865Z,2016.00
2022-10-17T09:09:38.859Z,2120.00
2022-10-17T09:10:38.857Z,2220.00
2022-10-17T09:11:38.864Z,2548.00
2022-10-17T09:12:38.821Z,2648.00
2022-10-17T09:13:38.828Z,2516.00
2022-10-17T09:14:38.807Z,2656.00
2022-10-17T09:15:38.800Z,2492.00
2022-10-17T09:16:38.777Z,2264.00
2022-10-17T09:17:38.812Z,2132.00
2022-10-17T09:18:38.758Z,2392.00
2022-10-17T09:19:38.751Z,2848.00
2022-10-17T09:20:42.381Z,2208.00
2022-10-17T09:21:39.531Z,2024.00
2022-10-17T09:22:40.008Z,2024.00
2022-10-17T09:23:41.819Z,2312.00
2022-10-17T09:24:39.743Z,2404.00
2022-10-17T09:25:43.927Z,2256.00
2022-10-17T09:26:44.845Z,2404.00
2022-10-17T09:27:38.723Z,2448.00
2022-10-17T09:28:38.765Z,2348.00
2022-10-17T09:29:43.621Z,2184.00
2022-10-17T09:30:45.257Z,2008.00
2022-10-17T09:31:39.635Z,2092.00
2022-10-17T09:32:38.613Z,2332.00
2022-10-17T09:33:53.292Z,2908.00
2022-10-17T09:34:39.588Z,2848.00
2022-10-17T09:35:38.573Z,2624.00
2022-10-17T09:36:38.560Z,1960.00
2022-10-17T09:37:38.553Z,1632.00
2022-10-17T09:38:38.536Z,1396.00
2022-10-17T09:39:38.559Z,1160.00
2022-10-17T09:40:38.509Z,1296.00
2022-10-17T09:41:47.175Z,1484.00
2022-10-17T09:42:39.488Z,1720.00
2022-10-17T09:43:38.567Z,1852.00
2022-10-17T09:44:38.490Z,1448.00
2022-10-17T09:45:38.460Z,1428.00
2022-10-17T09:46:38.599Z,1444.00
2022-10-17T09:47:38.431Z,1624.00
2022-10-17T09:48:38.456Z,1704.00
2022-10-17T09:49:38.450Z,1780.00
2022-10-17T09:50:38.392Z,1660.00
2022-10-17T09:51:38.394Z,1664.00
2022-10-17T09:52:38.562Z,1780.00
2022-10-17T09:53:38.362Z,1964.00
2022-10-17T09:54:38.349Z,1964.00
2022-10-17T09:55:38.378Z,1912.00
2022-10-17T09:56:38.343Z,1624.00
2022-10-17T09:57:38.339Z,1504.00
2022-10-17T09:58:38.304Z,1780.00
2022-10-17T09:59:39.260Z,1664.00
2022-10-17T10:00:38.359Z,1648.00
2022-10-17T10:01:38.282Z,1444.00
2022-10-17T10:02:39.138Z,1408.00
2022-10-17T10:03:38.279Z,1392.00
2022-10-17T10:04:53.051Z,1188.00
2022-10-17T10:05:39.236Z,972.00
2022-10-17T10:06:38.236Z,816.00
2022-10-17T10:07:38.278Z,860.00
2022-10-17T10:08:38.190Z,1124.00
2022-10-17T10:09:39.620Z,1348.00
2022-10-17T10:10:38.196Z,1040.00
2022-10-17T10:11:38.195Z,1016.00
2022-10-17T10:12:38.166Z,980.00
2022-10-17T10:13:38.144Z,1000.00
2022-10-17T10:14:38.129Z,1224.00
2022-10-17T10:15:38.140Z,1140.00
2022-10-17T10:16:38.128Z,1288.00
2022-10-17T10:17:38.372Z,1368.00
2022-10-17T10:18:38.093Z,1380.00
2022-10-17T10:19:40.041Z,2028.00
2022-10-17T10:20:40.014Z,2312.00
2022-10-17T10:21:38.144Z,2016.00
2022-10-17T10:22:38.112Z,1808.00
2022-10-17T10:23:38.296Z,1872.00
2022-10-17T10:24:38.036Z,2336.00
2022-10-17T10:25:38.022Z,2560.00
2022-10-17T10:26:37.996Z,2632.00
2022-10-17T10:27:38.036Z,2652.00
2022-10-17T10:28:38.050Z,2764.00
2022-10-17T10:29:37.985Z,3204.00
2022-10-17T10:30:39.928Z,3516.00
2022-10-17T10:31:38.053Z,3616.00
2022-10-17T10:32:37.967Z,3340.00
2022-10-17T10:33:41.585Z,3140.00
2022-10-17T10:34:37.921Z,3112.00
2022-10-17T10:35:37.925Z,2808.00
2022-10-17T10:37:38.241Z,2944.00
2022-10-17T10:38:37.902Z,3040.00
2022-10-17T10:39:37.868Z,3188.00
2022-10-17T10:40:37.843Z,3008.00
2022-10-17T10:41:37.838Z,1756.00
2022-10-17T10:42:37.821Z,1540.00
2022-10-17T10:43:38.559Z,1532.00
2022-10-17T10:44:37.795Z,1600.00
2022-10-17T10:45:48.396Z,1960.00
2022-10-17T10:46:38.793Z,2792.00
2022-10-17T10:47:37.901Z,3172.00
2022-10-17T10:48:37.760Z,2164.00
2022-10-17T10:49:37.772Z,1468.00
2022-10-17T10:50:40.597Z,1176.00
2022-10-17T10:51:40.181Z,956.00
2022-10-17T10:52:37.765Z,864.00
2022-10-17T10:53:37.835Z,860.00
2022-10-17T10:55:37.678Z,872.00
2022-10-17T10:56:38.554Z,752.00
2022-10-17T10:57:37.667Z,936.00
2022-10-17T10:58:40.279Z,1208.00
2022-10-17T10:59:37.690Z,1300.00
2022-10-17T11:00:37.711Z,1332.00
2022-10-17T11:01:38.565Z,1228.00
2022-10-17T11:02:37.606Z,1024.00
2022-10-17T11:03:37.630Z,936.00
2022-10-17T11:04:37.584Z,980.00
2022-10-17T11:05:37.598Z,1340.00
2022-10-17T11:06:37.615Z,1664.00
2022-10-17T11:07:37.537Z,1620.00
2022-10-17T11:08:37.544Z,1552.00
2022-10-17T11:09:37.538Z,1464.00
2022-10-17T11:10:37.513Z,1068.00
2022-10-17T11:11:37.499Z,1488.00
2022-10-17T11:12:37.555Z,1696.00
2022-10-17T11:13:37.484Z,1028.00
2022-10-17T11:14:37.459Z,1036.00
2022-10-17T11:15:37.591Z,1648.00
2022-10-17T11:16:37.454Z,1812.00
2022-10-17T11:17:38.253Z,1824.00
2022-10-17T11:18:37.459Z,1868.00
2022-10-17T11:19:37.446Z,2012.00
2022-10-17T11:20:37.422Z,1940.00
2022-10-17T11:21:37.426Z,1736.00
2022-10-17T11:22:37.433Z,1800.00
2022-10-17T11:23:37.404Z,1824.00
2022-10-17T11:24:37.375Z,1716.00
2022-10-17T11:25:37.355Z,1656.00
2022-10-17T11:26:37.379Z,1600.00
2022-10-17T11:27:37.334Z,1600.00
2022-10-17T11:28:37.436Z,1640.00
2022-10-17T11:29:37.328Z,1668.00
2022-10-17T11:30:37.351Z,1704.00
2022-10-17T11:31:37.329Z,1908.00
2022-10-17T11:32:37.279Z,2240.00
2022-10-17T11:33:37.289Z,2312.00
2022-10-17T11:34:37.246Z,2004.00
2022-10-17T11:35:37.279Z,1876.00
2022-10-17T11:36:37.238Z,2052.00
2022-10-17T11:37:37.237Z,2240.00
2022-10-17T11:38:37.198Z,2368.00
2022-10-17T11:39:37.604Z,2636.00
2022-10-17T11:40:37.258Z,3232.00
2022-10-17T11:41:37.191Z,3320.00
2022-10-17T11:42:37.160Z,3344.00
2022-10-17T11:43:37.150Z,3336.00
2022-10-17T11:44:37.182Z,3240.00
2022-10-17T11:45:37.141Z,3524.00
2022-10-17T11:46:37.201Z,3904.00
2022-10-17T11:47:37.102Z,3976.00
2022-10-17T11:48:37.103Z,3728.00
2022-10-17T11:49:40.521Z,3480.00
2022-10-17T11:52:55.574Z,2948.00
2022-10-17T11:53:38.044Z,2756.00
2022-10-17T11:54:37.079Z,2372.00
2022-10-17T11:55:37.965Z,2324.00
2022-10-17T11:56:41.873Z,2128.00
2022-10-17T11:57:38.536Z,1932.00
2022-10-17T11:58:37.556Z,1976.00
2022-10-17T11:59:36.990Z,2040.00
2022-10-17T12:00:39.278Z,2324.00
2022-10-17T12:01:38.070Z,2116.00
2022-10-17T12:02:36.988Z,1708.00
2022-10-17T12:03:36.959Z,1348.00
2022-10-17T12:04:37.905Z,1144.00
2022-10-17T12:05:36.908Z,996.00
2022-10-17T12:06:36.912Z,848.00
2022-10-17T12:07:36.916Z,816.00
2022-10-17T12:08:36.938Z,1008.00
2022-10-17T12:09:36.923Z,1224.00
2022-10-17T12:10:36.877Z,1296.00
2022-10-17T12:11:36.851Z,1300.00
2022-10-17T12:12:36.861Z,1208.00
2022-10-17T12:13:36.812Z,1048.00
2022-10-17T12:14:36.835Z,964.00
2022-10-17T12:15:36.798Z,888.00
2022-10-17T12:16:36.838Z,908.00
2022-10-17T12:17:36.790Z,1000.00
2022-10-17T12:18:36.767Z,888.00
2022-10-17T12:19:36.836Z,816.00
2022-10-17T12:20:36.742Z,976.00
2022-10-17T12:21:40.361Z,1180.00
2022-10-17T12:22:37.726Z,1260.00
2022-10-17T12:23:36.704Z,1848.00
2022-10-17T12:24:36.710Z,2656.00
2022-10-17T12:25:36.735Z,2428.00
2022-10-17T12:26:36.676Z,1788.00
2022-10-17T12:27:36.665Z,1120.00
2022-10-17T12:28:36.724Z,832.00
2022-10-17T12:29:36.659Z,768.00
2022-10-17T12:30:36.664Z,772.00
2022-10-17T12:31:36.618Z,708.00
2022-10-17T12:32:53.369Z,832.00
2022-10-17T12:33:39.079Z,768.00
2022-10-17T12:34:36.644Z,768.00
2022-10-17T12:35:36.607Z,828.00
2022-10-17T12:36:36.582Z,828.00
2022-10-17T12:37:36.563Z,924.00
2022-10-17T12:38:36.568Z,920.00
2022-10-17T12:39:36.578Z,896.00
2022-10-17T12:40:36.564Z,792.00
2022-10-17T12:41:36.520Z,688.00
2022-10-17T12:42:36.502Z,840.00
2022-10-17T12:43:36.525Z,904.00
2022-10-17T12:44:36.494Z,944.00
2022-10-17T12:45:36.473Z,892.00
2022-10-17T12:46:36.492Z,804.00
2022-10-17T12:47:36.454Z,792.00
2022-10-17T12:48:37.386Z,748.00
2022-10-17T12:49:36.440Z,628.00